SCIE/CCP METAR and TAF weather

Enter ICAO airport designator
Station Type Date Time Source
SCIE METAR 2021/08/02 03:00 UTC NOAA

SCIE 020300Z 22007KT CAVOK 09/08 Q1020


Station Type Date Time Source
SCIE Decoded METAR 2021/08/02 03:00 UTC NOAA

Concepcion, Chile (SCIE) 36-46S 073-03W
Aug 01, 2021 - 11:00 PM EDT / 2021.08.02 0300 UTC
Wind: from the SW (220 degrees) at 8 MPH (7 KT):0
Visibility: greater than 7 mile(s):0
Temperature: 48 F (9 C)
Dew Point: 46 F (8 C)
Relative Humidity: 93%
Pressure (altimeter): 30.12 in. Hg (1020 hPa)
ob: SCIE 020300Z 22007KT CAVOK 09/08 Q1020
cycle: 3

Station Type Date Time Source
SCIE TAF 2021/08/02 00:00 UTC NOAA

TAF SCIE 012200Z 0200/0224 20012KT CAVOK TX19/0218Z TN04/0210Z
BECMG 0202/0204 18005KT
BECMG 0216/0218 23010KT

Example: see airport list